sensor_id;sensor_type;location;lat;lon;timestamp;P1;durP1;ratioP1;P2;durP2;ratioP2
6693;SDS011;3384;42.628;23.380;2023-04-03T00:01:25;1.40;;;1.30;;
6693;SDS011;3384;42.628;23.380;2023-04-03T00:03:52;1.10;;;1.10;;
6693;SDS011;3384;42.628;23.380;2023-04-03T00:06:18;0.87;;;0.87;;
6693;SDS011;3384;42.628;23.380;2023-04-03T00:08:45;1.40;;;1.30;;
6693;SDS011;3384;42.628;23.380;2023-04-03T00:11:12;1.27;;;1.27;;
6693;SDS011;3384;42.628;23.380;2023-04-03T00:13:40;1.30;;;1.30;;
6693;SDS011;3384;42.628;23.380;2023-04-03T00:16:06;1.17;;;0.97;;
6693;SDS011;3384;42.628;23.380;2023-04-03T00:18:33;1.87;;;1.63;;
6693;SDS011;3384;42.628;23.380;2023-04-03T00:21:00;1.40;;;1.30;;
6693;SDS011;3384;42.628;23.380;2023-04-03T00:23:27;0.93;;;0.93;;
6693;SDS011;3384;42.628;23.380;2023-04-03T00:25:53;1.17;;;1.17;;
6693;SDS011;3384;42.628;23.380;2023-04-03T00:28:20;1.87;;;1.77;;
6693;SDS011;3384;42.628;23.380;2023-04-03T00:30:49;1.60;;;1.50;;
6693;SDS011;3384;42.628;23.380;2023-04-03T00:33:16;1.43;;;1.20;;
6693;SDS011;3384;42.628;23.380;2023-04-03T00:35:42;0.97;;;0.97;;
6693;SDS011;3384;42.628;23.380;2023-04-03T00:38:09;1.47;;;1.07;;
6693;SDS011;3384;42.628;23.380;2023-04-03T00:40:36;6.73;;;0.90;;
6693;SDS011;3384;42.628;23.380;2023-04-03T00:43:05;1.17;;;1.07;;
6693;SDS011;3384;42.628;23.380;2023-04-03T00:45:36;0.97;;;0.87;;
6693;SDS011;3384;42.628;23.380;2023-04-03T00:48:06;1.53;;;1.00;;
6693;SDS011;3384;42.628;23.380;2023-04-03T00:50:34;2.03;;;1.30;;
6693;SDS011;3384;42.628;23.380;2023-04-03T00:53:01;1.33;;;1.23;;
6693;SDS011;3384;42.628;23.380;2023-04-03T00:55:29;1.77;;;1.13;;
6693;SDS011;3384;42.628;23.380;2023-04-03T00:57:56;1.33;;;1.23;;
6693;SDS011;3384;42.628;23.380;2023-04-03T01:00:23;1.60;;;1.50;;
6693;SDS011;3384;42.628;23.380;2023-04-03T01:02:51;0.90;;;0.90;;
6693;SDS011;3384;42.628;23.380;2023-04-03T01:05:19;1.50;;;1.40;;
6693;SDS011;3384;42.628;23.380;2023-04-03T01:07:47;2.67;;;1.50;;
6693;SDS011;3384;42.628;23.380;2023-04-03T01:10:14;1.90;;;1.63;;
6693;SDS011;3384;42.628;23.380;2023-04-03T01:12:42;1.90;;;1.80;;
6693;SDS011;3384;42.628;23.380;2023-04-03T01:15:10;1.53;;;1.43;;
6693;SDS011;3384;42.628;23.380;2023-04-03T01:17:38;1.67;;;1.57;;
6693;SDS011;3384;42.628;23.380;2023-04-03T01:20:21;1.63;;;1.53;;
6693;SDS011;3384;42.628;23.380;2023-04-03T01:22:52;2.00;;;1.10;;
6693;SDS011;3384;42.628;23.380;2023-04-03T01:25:21;1.50;;;1.40;;
6693;SDS011;3384;42.628;23.380;2023-04-03T01:27:47;1.53;;;1.43;;
6693;SDS011;3384;42.628;23.380;2023-04-03T01:30:14;2.93;;;2.07;;
6693;SDS011;3384;42.628;23.380;2023-04-03T01:32:44;2.17;;;2.07;;
6693;SDS011;3384;42.628;23.380;2023-04-03T01:35:10;3.83;;;1.67;;
6693;SDS011;3384;42.628;23.380;2023-04-03T01:37:37;1.00;;;1.00;;
6693;SDS011;3384;42.628;23.380;2023-04-03T01:40:04;1.27;;;1.10;;
6693;SDS011;3384;42.628;23.380;2023-04-03T01:42:30;1.40;;;1.30;;
6693;SDS011;3384;42.628;23.380;2023-04-03T01:44:57;1.30;;;1.23;;
6693;SDS011;3384;42.628;23.380;2023-04-03T01:47:24;1.30;;;1.20;;
6693;SDS011;3384;42.628;23.380;2023-04-03T01:49:51;1.10;;;1.07;;
6693;SDS011;3384;42.628;23.380;2023-04-03T01:52:18;1.33;;;1.10;;
6693;SDS011;3384;42.628;23.380;2023-04-03T01:54:44;1.00;;;1.00;;
6693;SDS011;3384;42.628;23.380;2023-04-03T01:57:11;1.00;;;1.00;;
6693;SDS011;3384;42.628;23.380;2023-04-03T01:59:38;2.97;;;1.33;;
6693;SDS011;3384;42.628;23.380;2023-04-03T02:02:05;2.00;;;1.00;;
6693;SDS011;3384;42.628;23.380;2023-04-03T02:04:31;1.10;;;1.10;;
6693;SDS011;3384;42.628;23.380;2023-04-03T02:06:59;1.00;;;1.00;;
6693;SDS011;3384;42.628;23.380;2023-04-03T02:09:26;2.00;;;0.87;;
6693;SDS011;3384;42.628;23.380;2023-04-03T02:11:52;1.47;;;1.37;;
6693;SDS011;3384;42.628;23.380;2023-04-03T02:14:19;1.57;;;1.47;;
6693;SDS011;3384;42.628;23.380;2023-04-03T02:16:46;1.53;;;0.93;;
6693;SDS011;3384;42.628;23.380;2023-04-03T02:19:13;1.83;;;1.73;;
6693;SDS011;3384;42.628;23.380;2023-04-03T02:21:40;1.40;;;1.10;;
6693;SDS011;3384;42.628;23.380;2023-04-03T02:24:08;1.80;;;0.80;;
6693;SDS011;3384;42.628;23.380;2023-04-03T02:26:34;0.90;;;0.90;;
6693;SDS011;3384;42.628;23.380;2023-04-03T02:29:01;1.13;;;1.13;;
6693;SDS011;3384;42.628;23.380;2023-04-03T02:31:27;0.83;;;0.83;;
6693;SDS011;3384;42.628;23.380;2023-04-03T02:33:54;0.93;;;0.93;;
6693;SDS011;3384;42.628;23.380;2023-04-03T02:36:21;1.30;;;0.80;;
6693;SDS011;3384;42.628;23.380;2023-04-03T02:38:47;0.93;;;0.93;;
6693;SDS011;3384;42.628;23.380;2023-04-03T02:41:17;1.13;;;1.13;;
6693;SDS011;3384;42.628;23.380;2023-04-03T02:43:44;1.77;;;1.67;;
6693;SDS011;3384;42.628;23.380;2023-04-03T02:46:11;1.80;;;1.70;;
6693;SDS011;3384;42.628;23.380;2023-04-03T02:48:40;1.57;;;1.47;;
6693;SDS011;3384;42.628;23.380;2023-04-03T02:51:06;2.00;;;1.90;;
6693;SDS011;3384;42.628;23.380;2023-04-03T02:53:33;1.50;;;1.50;;
6693;SDS011;3384;42.628;23.380;2023-04-03T02:55:59;9.03;;;1.63;;
6693;SDS011;3384;42.628;23.380;2023-04-03T02:58:27;1.47;;;1.37;;
6693;SDS011;3384;42.628;23.380;2023-04-03T03:00:55;2.40;;;1.73;;
6693;SDS011;3384;42.628;23.380;2023-04-03T03:03:22;6.30;;;1.80;;
6693;SDS011;3384;42.628;23.380;2023-04-03T03:05:48;1.00;;;1.00;;
6693;SDS011;3384;42.628;23.380;2023-04-03T03:08:15;1.30;;;1.20;;
6693;SDS011;3384;42.628;23.380;2023-04-03T03:10:45;1.53;;;1.43;;
6693;SDS011;3384;42.628;23.380;2023-04-03T03:13:11;1.70;;;1.60;;
6693;SDS011;3384;42.628;23.380;2023-04-03T03:15:39;6.90;;;1.50;;
6693;SDS011;3384;42.628;23.380;2023-04-03T03:18:06;1.90;;;1.80;;
6693;SDS011;3384;42.628;23.380;2023-04-03T03:20:32;2.20;;;2.10;;
6693;SDS011;3384;42.628;23.380;2023-04-03T03:22:59;1.30;;;1.30;;
6693;SDS011;3384;42.628;23.380;2023-04-03T03:25:25;4.97;;;1.40;;
6693;SDS011;3384;42.628;23.380;2023-04-03T03:27:52;3.03;;;1.50;;
6693;SDS011;3384;42.628;23.380;2023-04-03T03:30:18;1.43;;;1.33;;
6693;SDS011;3384;42.628;23.380;2023-04-03T03:32:46;1.20;;;1.20;;
6693;SDS011;3384;42.628;23.380;2023-04-03T03:35:13;3.93;;;1.40;;
6693;SDS011;3384;42.628;23.380;2023-04-03T03:37:39;2.20;;;2.00;;
6693;SDS011;3384;42.628;23.380;2023-04-03T03:40:06;1.37;;;1.27;;
6693;SDS011;3384;42.628;23.380;2023-04-03T03:42:33;1.87;;;1.70;;
6693;SDS011;3384;42.628;23.380;2023-04-03T03:45:00;1.70;;;1.60;;
6693;SDS011;3384;42.628;23.380;2023-04-03T03:47:26;1.30;;;1.30;;
6693;SDS011;3384;42.628;23.380;2023-04-03T03:49:54;1.87;;;1.60;;
6693;SDS011;3384;42.628;23.380;2023-04-03T03:52:21;2.33;;;1.60;;
6693;SDS011;3384;42.628;23.380;2023-04-03T03:54:47;1.80;;;1.70;;
6693;SDS011;3384;42.628;23.380;2023-04-03T03:57:14;1.47;;;1.37;;
6693;SDS011;3384;42.628;23.380;2023-04-03T03:59:41;1.20;;;1.20;;
6693;SDS011;3384;42.628;23.380;2023-04-03T04:02:09;1.30;;;1.30;;
6693;SDS011;3384;42.628;23.380;2023-04-03T04:04:35;1.93;;;1.27;;
6693;SDS011;3384;42.628;23.380;2023-04-03T04:07:03;0.90;;;0.90;;
6693;SDS011;3384;42.628;23.380;2023-04-03T04:09:30;1.57;;;1.43;;
6693;SDS011;3384;42.628;23.380;2023-04-03T04:11:56;1.40;;;1.40;;
6693;SDS011;3384;42.628;23.380;2023-04-03T04:14:23;2.03;;;1.20;;
6693;SDS011;3384;42.628;23.380;2023-04-03T04:16:49;1.60;;;1.50;;
6693;SDS011;3384;42.628;23.380;2023-04-03T04:19:16;1.43;;;1.33;;
6693;SDS011;3384;42.628;23.380;2023-04-03T04:21:42;1.90;;;1.80;;
6693;SDS011;3384;42.628;23.380;2023-04-03T04:24:12;3.33;;;1.90;;
6693;SDS011;3384;42.628;23.380;2023-04-03T04:26:38;5.17;;;1.73;;
6693;SDS011;3384;42.628;23.380;2023-04-03T04:29:05;2.10;;;2.00;;
6693;SDS011;3384;42.628;23.380;2023-04-03T04:36:48;3.97;;;1.60;;
6693;SDS011;3384;42.628;23.380;2023-04-03T04:39:16;6.77;;;2.60;;
6693;SDS011;3384;42.628;23.380;2023-04-03T04:41:48;1.73;;;1.67;;
6693;SDS011;3384;42.628;23.380;2023-04-03T04:44:18;3.13;;;2.10;;
6693;SDS011;3384;42.628;23.380;2023-04-03T04:46:45;1.30;;;1.20;;
6693;SDS011;3384;42.628;23.380;2023-04-03T04:49:12;2.30;;;2.10;;
6693;SDS011;3384;42.628;23.380;2023-04-03T04:54:16;4.73;;;1.63;;
6693;SDS011;3384;42.628;23.380;2023-04-03T04:56:44;12.70;;;1.90;;
6693;SDS011;3384;42.628;23.380;2023-04-03T04:59:13;5.70;;;2.70;;
6693;SDS011;3384;42.628;23.380;2023-04-03T05:01:39;7.50;;;1.50;;
6693;SDS011;3384;42.628;23.380;2023-04-03T05:04:12;2.57;;;1.57;;
6693;SDS011;3384;42.628;23.380;2023-04-03T05:06:39;1.77;;;1.67;;
6693;SDS011;3384;42.628;23.380;2023-04-03T05:09:05;1.80;;;1.70;;
6693;SDS011;3384;42.628;23.380;2023-04-03T05:11:33;3.43;;;2.10;;
6693;SDS011;3384;42.628;23.380;2023-04-03T05:14:00;3.20;;;2.27;;
6693;SDS011;3384;42.628;23.380;2023-04-03T05:16:27;10.43;;;2.10;;
6693;SDS011;3384;42.628;23.380;2023-04-03T05:18:54;2.67;;;2.47;;
6693;SDS011;3384;42.628;23.380;2023-04-03T05:21:20;2.63;;;2.43;;
6693;SDS011;3384;42.628;23.380;2023-04-03T05:23:51;4.00;;;3.10;;
6693;SDS011;3384;42.628;23.380;2023-04-03T05:26:17;3.77;;;3.47;;
6693;SDS011;3384;42.628;23.380;2023-04-03T05:28:46;8.77;;;2.30;;
6693;SDS011;3384;42.628;23.380;2023-04-03T05:31:13;3.33;;;2.83;;
6693;SDS011;3384;42.628;23.380;2023-04-03T05:33:39;4.20;;;2.90;;
6693;SDS011;3384;42.628;23.380;2023-04-03T05:36:06;9.30;;;3.10;;
6693;SDS011;3384;42.628;23.380;2023-04-03T05:38:33;9.20;;;3.07;;
6693;SDS011;3384;42.628;23.380;2023-04-03T05:40:59;5.73;;;3.20;;
6693;SDS011;3384;42.628;23.380;2023-04-03T05:43:26;4.23;;;2.40;;
6693;SDS011;3384;42.628;23.380;2023-04-03T05:45:54;20.87;;;3.30;;
6693;SDS011;3384;42.628;23.380;2023-04-03T05:48:20;4.63;;;3.20;;
6693;SDS011;3384;42.628;23.380;2023-04-03T05:50:47;6.30;;;3.57;;
6693;SDS011;3384;42.628;23.380;2023-04-03T05:53:15;7.63;;;4.20;;
6693;SDS011;3384;42.628;23.380;2023-04-03T05:55:42;15.73;;;3.27;;
6693;SDS011;3384;42.628;23.380;2023-04-03T05:58:09;15.57;;;3.47;;
6693;SDS011;3384;42.628;23.380;2023-04-03T06:00:35;3.47;;;3.27;;
6693;SDS011;3384;42.628;23.380;2023-04-03T06:03:03;8.33;;;3.43;;
6693;SDS011;3384;42.628;23.380;2023-04-03T06:05:30;10.40;;;4.50;;
6693;SDS011;3384;42.628;23.380;2023-04-03T06:07:57;3.57;;;3.27;;
6693;SDS011;3384;42.628;23.380;2023-04-03T06:10:23;16.57;;;3.63;;
6693;SDS011;3384;42.628;23.380;2023-04-03T06:12:50;14.23;;;3.20;;
6693;SDS011;3384;42.628;23.380;2023-04-03T06:15:16;6.27;;;3.70;;
6693;SDS011;3384;42.628;23.380;2023-04-03T06:17:43;6.27;;;4.07;;
6693;SDS011;3384;42.628;23.380;2023-04-03T06:20:11;3.60;;;3.03;;
6693;SDS011;3384;42.628;23.380;2023-04-03T06:22:38;5.63;;;4.27;;
6693;SDS011;3384;42.628;23.380;2023-04-03T06:25:05;15.47;;;3.60;;
6693;SDS011;3384;42.628;23.380;2023-04-03T06:27:32;9.70;;;4.83;;
6693;SDS011;3384;42.628;23.380;2023-04-03T06:29:58;12.43;;;3.23;;
6693;SDS011;3384;42.628;23.380;2023-04-03T06:32:25;8.93;;;3.30;;
6693;SDS011;3384;42.628;23.380;2023-04-03T06:34:52;9.03;;;4.20;;
6693;SDS011;3384;42.628;23.380;2023-04-03T06:37:21;5.27;;;3.50;;
6693;SDS011;3384;42.628;23.380;2023-04-03T06:39:51;6.40;;;3.50;;
6693;SDS011;3384;42.628;23.380;2023-04-03T06:42:17;18.23;;;3.20;;
6693;SDS011;3384;42.628;23.380;2023-04-03T06:44:44;6.03;;;3.80;;
6693;SDS011;3384;42.628;23.380;2023-04-03T06:47:11;3.83;;;2.90;;
6693;SDS011;3384;42.628;23.380;2023-04-03T06:49:37;4.60;;;2.70;;
6693;SDS011;3384;42.628;23.380;2023-04-03T06:52:04;3.70;;;2.43;;
6693;SDS011;3384;42.628;23.380;2023-04-03T06:54:32;9.73;;;2.97;;
6693;SDS011;3384;42.628;23.380;2023-04-03T06:56:59;3.87;;;2.63;;
6693;SDS011;3384;42.628;23.380;2023-04-03T06:59:25;5.10;;;2.47;;
6693;SDS011;3384;42.628;23.380;2023-04-03T07:01:52;2.43;;;2.10;;
6693;SDS011;3384;42.628;23.380;2023-04-03T07:04:18;2.60;;;2.50;;
6693;SDS011;3384;42.628;23.380;2023-04-03T07:06:45;2.70;;;2.50;;
6693;SDS011;3384;42.628;23.380;2023-04-03T07:09:12;3.27;;;2.13;;
6693;SDS011;3384;42.628;23.380;2023-04-03T07:11:40;4.33;;;2.83;;
6693;SDS011;3384;42.628;23.380;2023-04-03T07:14:07;4.87;;;3.40;;
6693;SDS011;3384;42.628;23.380;2023-04-03T07:16:33;8.63;;;4.30;;
6693;SDS011;3384;42.628;23.380;2023-04-03T07:19:00;10.70;;;4.10;;
6693;SDS011;3384;42.628;23.380;2023-04-03T07:21:27;5.80;;;4.00;;
6693;SDS011;3384;42.628;23.380;2023-04-03T07:23:53;5.67;;;3.43;;
6693;SDS011;3384;42.628;23.380;2023-04-03T07:26:20;16.33;;;4.80;;
6693;SDS011;3384;42.628;23.380;2023-04-03T07:28:48;13.70;;;4.80;;
6693;SDS011;3384;42.628;23.380;2023-04-03T07:31:15;10.30;;;3.83;;
6693;SDS011;3384;42.628;23.380;2023-04-03T07:33:43;5.27;;;4.80;;
6693;SDS011;3384;42.628;23.380;2023-04-03T07:36:11;19.87;;;4.73;;
6693;SDS011;3384;42.628;23.380;2023-04-03T07:38:40;4.60;;;4.40;;
6693;SDS011;3384;42.628;23.380;2023-04-03T07:41:06;15.53;;;4.43;;
6693;SDS011;3384;42.628;23.380;2023-04-03T07:43:37;5.73;;;5.27;;
6693;SDS011;3384;42.628;23.380;2023-04-03T07:46:05;8.50;;;4.90;;
6693;SDS011;3384;42.628;23.380;2023-04-03T07:48:32;18.43;;;5.83;;
6693;SDS011;3384;42.628;23.380;2023-04-03T07:51:00;6.10;;;5.53;;
6693;SDS011;3384;42.628;23.380;2023-04-03T07:53:27;6.97;;;5.30;;
6693;SDS011;3384;42.628;23.380;2023-04-03T07:55:53;11.23;;;6.10;;
6693;SDS011;3384;42.628;23.380;2023-04-03T07:58:22;9.67;;;6.40;;
6693;SDS011;3384;42.628;23.380;2023-04-03T08:00:48;16.37;;;6.97;;
6693;SDS011;3384;42.628;23.380;2023-04-03T08:03:17;16.23;;;8.17;;
6693;SDS011;3384;42.628;23.380;2023-04-03T08:05:44;23.20;;;8.00;;
6693;SDS011;3384;42.628;23.380;2023-04-03T08:08:12;7.87;;;7.00;;
6693;SDS011;3384;42.628;23.380;2023-04-03T08:10:40;10.00;;;7.40;;
6693;SDS011;3384;42.628;23.380;2023-04-03T08:13:07;16.90;;;10.20;;
6693;SDS011;3384;42.628;23.380;2023-04-03T08:15:34;13.77;;;7.83;;
6693;SDS011;3384;42.628;23.380;2023-04-03T08:18:01;17.23;;;7.13;;
6693;SDS011;3384;42.628;23.380;2023-04-03T08:20:30;14.60;;;7.83;;
6693;SDS011;3384;42.628;23.380;2023-04-03T08:22:56;19.13;;;7.27;;
6693;SDS011;3384;42.628;23.380;2023-04-03T08:25:23;17.30;;;11.23;;
6693;SDS011;3384;42.628;23.380;2023-04-03T08:27:49;19.73;;;11.37;;
6693;SDS011;3384;42.628;23.380;2023-04-03T08:30:16;20.23;;;13.57;;
6693;SDS011;3384;42.628;23.380;2023-04-03T08:32:43;30.20;;;13.00;;
6693;SDS011;3384;42.628;23.380;2023-04-03T08:35:10;23.57;;;10.97;;
6693;SDS011;3384;42.628;23.380;2023-04-03T08:37:38;23.30;;;11.57;;
6693;SDS011;3384;42.628;23.380;2023-04-03T08:40:05;17.70;;;9.60;;
6693;SDS011;3384;42.628;23.380;2023-04-03T08:42:37;21.53;;;10.70;;
6693;SDS011;3384;42.628;23.380;2023-04-03T08:45:07;12.13;;;7.90;;
6693;SDS011;3384;42.628;23.380;2023-04-03T08:47:38;23.93;;;8.33;;
6693;SDS011;3384;42.628;23.380;2023-04-03T08:50:05;10.17;;;8.00;;
6693;SDS011;3384;42.628;23.380;2023-04-03T08:52:34;17.73;;;7.60;;
6693;SDS011;3384;42.628;23.380;2023-04-03T08:55:05;15.33;;;7.70;;
6693;SDS011;3384;42.628;23.380;2023-04-03T08:57:33;7.83;;;7.13;;
6693;SDS011;3384;42.628;23.380;2023-04-03T09:00:03;10.83;;;6.97;;
6693;SDS011;3384;42.628;23.380;2023-04-03T09:02:31;18.07;;;7.27;;
6693;SDS011;3384;42.628;23.380;2023-04-03T09:04:59;7.97;;;7.17;;
6693;SDS011;3384;42.628;23.380;2023-04-03T09:07:31;15.50;;;9.00;;
6693;SDS011;3384;42.628;23.380;2023-04-03T09:09:59;14.03;;;6.90;;
6693;SDS011;3384;42.628;23.380;2023-04-03T09:12:29;6.93;;;6.33;;
6693;SDS011;3384;42.628;23.380;2023-04-03T09:15:00;6.73;;;6.10;;
6693;SDS011;3384;42.628;23.380;2023-04-03T09:17:36;21.70;;;7.60;;
6693;SDS011;3384;42.628;23.380;2023-04-03T09:20:10;9.37;;;6.30;;
6693;SDS011;3384;42.628;23.380;2023-04-03T09:22:40;6.87;;;5.67;;
6693;SDS011;3384;42.628;23.380;2023-04-03T09:25:10;8.50;;;5.60;;
6693;SDS011;3384;42.628;23.380;2023-04-03T09:27:39;4.40;;;4.10;;
6693;SDS011;3384;42.628;23.380;2023-04-03T09:30:11;5.77;;;5.00;;
6693;SDS011;3384;42.628;23.380;2023-04-03T09:32:38;7.90;;;4.93;;
6693;SDS011;3384;42.628;23.380;2023-04-03T09:35:10;5.10;;;4.57;;
6693;SDS011;3384;42.628;23.380;2023-04-03T09:37:43;8.73;;;4.50;;
6693;SDS011;3384;42.628;23.380;2023-04-03T09:42:56;8.63;;;2.97;;
6693;SDS011;3384;42.628;23.380;2023-04-03T09:45:24;3.20;;;2.97;;
6693;SDS011;3384;42.628;23.380;2023-04-03T09:48:06;6.53;;;6.00;;
6693;SDS011;3384;42.628;23.380;2023-04-03T09:50:33;2.43;;;2.23;;
6693;SDS011;3384;42.628;23.380;2023-04-03T09:53:02;3.10;;;3.00;;
6693;SDS011;3384;42.628;23.380;2023-04-03T09:55:30;9.37;;;2.80;;
6693;SDS011;3384;42.628;23.380;2023-04-03T09:57:59;6.60;;;3.50;;
6693;SDS011;3384;42.628;23.380;2023-04-03T10:00:27;5.33;;;3.20;;
6693;SDS011;3384;42.628;23.380;2023-04-03T10:02:54;4.00;;;2.73;;
6693;SDS011;3384;42.628;23.380;2023-04-03T10:05:25;1.97;;;1.87;;
6693;SDS011;3384;42.628;23.380;2023-04-03T10:07:52;6.50;;;1.77;;
6693;SDS011;3384;42.628;23.380;2023-04-03T10:10:32;4.40;;;1.80;;
6693;SDS011;3384;42.628;23.380;2023-04-03T10:13:07;2.50;;;1.97;;
6693;SDS011;3384;42.628;23.380;2023-04-03T10:15:36;2.43;;;2.27;;
6693;SDS011;3384;42.628;23.380;2023-04-03T10:18:06;2.10;;;2.00;;
6693;SDS011;3384;42.628;23.380;2023-04-03T10:20:36;2.30;;;2.20;;
6693;SDS011;3384;42.628;23.380;2023-04-03T10:23:14;3.30;;;2.30;;
6693;SDS011;3384;42.628;23.380;2023-04-03T10:25:43;1.90;;;1.80;;
6693;SDS011;3384;42.628;23.380;2023-04-03T10:28:16;1.80;;;1.63;;
6693;SDS011;3384;42.628;23.380;2023-04-03T10:30:47;2.50;;;2.00;;
6693;SDS011;3384;42.628;23.380;2023-04-03T10:33:19;1.60;;;1.50;;
6693;SDS011;3384;42.628;23.380;2023-04-03T10:35:50;1.30;;;1.20;;
6693;SDS011;3384;42.628;23.380;2023-04-03T10:38:19;1.80;;;1.70;;
6693;SDS011;3384;42.628;23.380;2023-04-03T10:40:47;3.83;;;2.20;;
6693;SDS011;3384;42.628;23.380;2023-04-03T10:43:19;2.13;;;1.73;;
6693;SDS011;3384;42.628;23.380;2023-04-03T10:45:56;1.60;;;1.60;;
6693;SDS011;3384;42.628;23.380;2023-04-03T10:48:26;1.90;;;1.80;;
6693;SDS011;3384;42.628;23.380;2023-04-03T10:50:58;2.10;;;2.00;;
6693;SDS011;3384;42.628;23.380;2023-04-03T10:53:27;1.80;;;1.70;;
6693;SDS011;3384;42.628;23.380;2023-04-03T10:55:58;3.27;;;1.60;;
6693;SDS011;3384;42.628;23.380;2023-04-03T10:58:30;9.50;;;1.57;;
6693;SDS011;3384;42.628;23.380;2023-04-03T11:01:00;1.80;;;1.70;;
6693;SDS011;3384;42.628;23.380;2023-04-03T11:03:29;2.00;;;1.90;;
6693;SDS011;3384;42.628;23.380;2023-04-03T11:05:57;2.03;;;1.83;;
6693;SDS011;3384;42.628;23.380;2023-04-03T11:08:27;2.37;;;2.20;;
6693;SDS011;3384;42.628;23.380;2023-04-03T11:10:56;9.77;;;1.73;;
6693;SDS011;3384;42.628;23.380;2023-04-03T11:13:24;3.07;;;1.67;;
6693;SDS011;3384;42.628;23.380;2023-04-03T11:15:54;2.50;;;2.33;;
6693;SDS011;3384;42.628;23.380;2023-04-03T11:18:21;3.57;;;3.27;;
6693;SDS011;3384;42.628;23.380;2023-04-03T11:20:50;2.73;;;2.20;;
6693;SDS011;3384;42.628;23.380;2023-04-03T11:23:21;2.50;;;2.40;;
6693;SDS011;3384;42.628;23.380;2023-04-03T11:25:51;2.40;;;2.30;;
6693;SDS011;3384;42.628;23.380;2023-04-03T11:28:18;2.47;;;2.27;;
6693;SDS011;3384;42.628;23.380;2023-04-03T11:30:46;2.30;;;1.87;;
6693;SDS011;3384;42.628;23.380;2023-04-03T11:33:27;3.77;;;3.43;;
6693;SDS011;3384;42.628;23.380;2023-04-03T11:35:56;2.47;;;2.37;;
6693;SDS011;3384;42.628;23.380;2023-04-03T11:38:24;15.63;;;2.17;;
6693;SDS011;3384;42.628;23.380;2023-04-03T11:40:51;3.60;;;3.50;;
6693;SDS011;3384;42.628;23.380;2023-04-03T11:43:23;3.00;;;2.90;;
6693;SDS011;3384;42.628;23.380;2023-04-03T11:45:52;2.53;;;2.43;;
6693;SDS011;3384;42.628;23.380;2023-04-03T11:53:48;2.33;;;2.23;;
6693;SDS011;3384;42.628;23.380;2023-04-03T11:56:28;2.20;;;2.10;;
6693;SDS011;3384;42.628;23.380;2023-04-03T12:01:44;3.23;;;3.10;;
6693;SDS011;3384;42.628;23.380;2023-04-03T12:04:11;2.63;;;2.53;;
6693;SDS011;3384;42.628;23.380;2023-04-03T12:06:50;2.87;;;2.63;;
6693;SDS011;3384;42.628;23.380;2023-04-03T12:09:26;3.20;;;3.10;;
6693;SDS011;3384;42.628;23.380;2023-04-03T12:11:53;2.73;;;2.63;;
6693;SDS011;3384;42.628;23.380;2023-04-03T12:14:21;5.57;;;4.40;;
6693;SDS011;3384;42.628;23.380;2023-04-03T12:16:48;5.40;;;5.00;;
6693;SDS011;3384;42.628;23.380;2023-04-03T12:19:33;2.93;;;2.83;;
6693;SDS011;3384;42.628;23.380;2023-04-03T12:22:07;3.50;;;3.20;;
6693;SDS011;3384;42.628;23.380;2023-04-03T12:24:35;3.43;;;3.33;;
6693;SDS011;3384;42.628;23.380;2023-04-03T12:30:11;3.00;;;2.80;;
6693;SDS011;3384;42.628;23.380;2023-04-03T12:32:50;6.00;;;3.03;;
6693;SDS011;3384;42.628;23.380;2023-04-03T12:35:21;3.40;;;3.20;;
6693;SDS011;3384;42.628;23.380;2023-04-03T12:37:59;3.90;;;3.60;;
6693;SDS011;3384;42.628;23.380;2023-04-03T12:40:33;4.30;;;3.80;;
6693;SDS011;3384;42.628;23.380;2023-04-03T12:45:52;4.83;;;4.37;;
6693;SDS011;3384;42.628;23.380;2023-04-03T12:48:24;7.03;;;5.00;;
6693;SDS011;3384;42.628;23.380;2023-04-03T12:50:52;5.40;;;5.10;;
6693;SDS011;3384;42.628;23.380;2023-04-03T12:53:19;4.77;;;4.40;;
6693;SDS011;3384;42.628;23.380;2023-04-03T12:55:49;7.10;;;4.17;;
6693;SDS011;3384;42.628;23.380;2023-04-03T12:58:20;2.70;;;2.60;;
6693;SDS011;3384;42.628;23.380;2023-04-03T13:00:57;6.20;;;2.77;;
6693;SDS011;3384;42.628;23.380;2023-04-03T13:03:25;3.63;;;3.00;;
6693;SDS011;3384;42.628;23.380;2023-04-03T13:05:52;3.63;;;3.40;;
6693;SDS011;3384;42.628;23.380;2023-04-03T13:08:19;6.60;;;3.50;;
6693;SDS011;3384;42.628;23.380;2023-04-03T13:10:52;6.47;;;4.57;;
6693;SDS011;3384;42.628;23.380;2023-04-03T13:13:21;4.67;;;4.37;;
6693;SDS011;3384;42.628;23.380;2023-04-03T13:15:48;5.10;;;4.73;;
6693;SDS011;3384;42.628;23.380;2023-04-03T13:18:25;6.77;;;4.90;;
6693;SDS011;3384;42.628;23.380;2023-04-03T13:20:52;4.57;;;4.30;;
6693;SDS011;3384;42.628;23.380;2023-04-03T13:23:20;5.20;;;4.90;;
6693;SDS011;3384;42.628;23.380;2023-04-03T13:25:48;6.33;;;5.93;;
6693;SDS011;3384;42.628;23.380;2023-04-03T13:28:18;4.53;;;4.23;;
6693;SDS011;3384;42.628;23.380;2023-04-03T13:30:54;7.03;;;4.53;;
6693;SDS011;3384;42.628;23.380;2023-04-03T13:33:22;6.97;;;5.07;;
6693;SDS011;3384;42.628;23.380;2023-04-03T13:35:54;6.33;;;5.83;;
6693;SDS011;3384;42.628;23.380;2023-04-03T13:38:23;5.23;;;4.90;;
6693;SDS011;3384;42.628;23.380;2023-04-03T13:40:50;5.07;;;4.87;;
6693;SDS011;3384;42.628;23.380;2023-04-03T13:43:19;4.80;;;4.37;;
6693;SDS011;3384;42.628;23.380;2023-04-03T13:45:53;7.40;;;5.30;;
6693;SDS011;3384;42.628;23.380;2023-04-03T13:48:19;6.03;;;5.53;;
6693;SDS011;3384;42.628;23.380;2023-04-03T13:50:55;6.20;;;5.77;;
6693;SDS011;3384;42.628;23.380;2023-04-03T13:53:23;5.37;;;4.97;;
6693;SDS011;3384;42.628;23.380;2023-04-03T13:58:51;6.47;;;5.97;;
6693;SDS011;3384;42.628;23.380;2023-04-03T14:01:19;4.70;;;4.43;;
6693;SDS011;3384;42.628;23.380;2023-04-03T14:03:47;4.63;;;4.33;;
6693;SDS011;3384;42.628;23.380;2023-04-03T14:06:15;4.70;;;4.60;;
6693;SDS011;3384;42.628;23.380;2023-04-03T14:08:42;4.53;;;4.27;;
6693;SDS011;3384;42.628;23.380;2023-04-03T14:11:10;4.77;;;4.57;;
6693;SDS011;3384;42.628;23.380;2023-04-03T14:13:38;48.83;;;25.80;;
6693;SDS011;3384;42.628;23.380;2023-04-03T14:16:06;9.53;;;8.63;;
6693;SDS011;3384;42.628;23.380;2023-04-03T14:18:33;6.50;;;6.00;;
6693;SDS011;3384;42.628;23.380;2023-04-03T14:20:59;5.07;;;4.63;;
6693;SDS011;3384;42.628;23.380;2023-04-03T14:23:26;4.80;;;4.60;;
6693;SDS011;3384;42.628;23.380;2023-04-03T14:25:52;3.70;;;3.60;;
6693;SDS011;3384;42.628;23.380;2023-04-03T14:28:20;3.83;;;3.63;;
6693;SDS011;3384;42.628;23.380;2023-04-03T14:30:47;3.57;;;3.47;;
6693;SDS011;3384;42.628;23.380;2023-04-03T14:33:17;8.20;;;4.70;;
6693;SDS011;3384;42.628;23.380;2023-04-03T14:35:44;6.50;;;3.37;;
6693;SDS011;3384;42.628;23.380;2023-04-03T14:38:12;4.33;;;3.97;;
6693;SDS011;3384;42.628;23.380;2023-04-03T14:40:46;3.87;;;3.67;;
6693;SDS011;3384;42.628;23.380;2023-04-03T14:43:12;3.20;;;2.93;;
6693;SDS011;3384;42.628;23.380;2023-04-03T14:45:39;3.93;;;2.67;;
6693;SDS011;3384;42.628;23.380;2023-04-03T14:48:06;3.30;;;3.20;;
6693;SDS011;3384;42.628;23.380;2023-04-03T14:50:37;4.20;;;4.07;;
6693;SDS011;3384;42.628;23.380;2023-04-03T14:53:03;5.77;;;5.30;;
6693;SDS011;3384;42.628;23.380;2023-04-03T14:55:30;4.03;;;3.80;;
6693;SDS011;3384;42.628;23.380;2023-04-03T14:57:56;4.60;;;4.40;;
6693;SDS011;3384;42.628;23.380;2023-04-03T15:00:23;2.53;;;2.43;;
6693;SDS011;3384;42.628;23.380;2023-04-03T15:02:49;2.87;;;2.67;;
6693;SDS011;3384;42.628;23.380;2023-04-03T15:05:16;3.73;;;3.20;;
6693;SDS011;3384;42.628;23.380;2023-04-03T15:07:46;2.97;;;2.87;;
6693;SDS011;3384;42.628;23.380;2023-04-03T15:10:15;4.27;;;4.00;;
6693;SDS011;3384;42.628;23.380;2023-04-03T15:12:42;4.07;;;3.87;;
6693;SDS011;3384;42.628;23.380;2023-04-03T15:15:08;4.27;;;3.87;;
6693;SDS011;3384;42.628;23.380;2023-04-03T15:17:35;4.03;;;3.83;;
6693;SDS011;3384;42.628;23.380;2023-04-03T15:20:02;3.63;;;3.53;;
6693;SDS011;3384;42.628;23.380;2023-04-03T15:22:28;4.20;;;3.83;;
6693;SDS011;3384;42.628;23.380;2023-04-03T15:24:56;5.03;;;4.47;;
6693;SDS011;3384;42.628;23.380;2023-04-03T15:27:23;5.50;;;4.80;;
6693;SDS011;3384;42.628;23.380;2023-04-03T15:29:49;4.90;;;4.07;;
6693;SDS011;3384;42.628;23.380;2023-04-03T15:32:16;4.67;;;4.27;;
6693;SDS011;3384;42.628;23.380;2023-04-03T15:34:42;4.70;;;4.30;;